Time;durP1;ratioP1;P1;durP2;ratioP2;P2;SDS_P1;SDS_P2;PMS_P1;PMS_P2;Temp;Humidity;BMP_temperature;BMP_pressure;BME280_temperature;BME280_humidity;BME280_pressure;Samples;Min_cycle;Max_cycle;Signal;HPM_P1;HPM_P2
2022/03/20 00:02:17;;;;;;;27.80;23.13;;;;;;;7.73;34.41;99208.66;8302489;28;20240;-64
2022/03/20 00:06:20;;;;;;;33.67;24.30;;;;;;;7.83;34.29;99202.50;8286065;28;20233;-64
2022/03/20 00:10:25;;;;;;;29.43;23.07;;;;;;;7.60;34.83;99203.66;8286830;28;20237;-64
2022/03/20 00:14:28;;;;;;;30.73;24.70;;;;;;;7.81;34.53;99201.69;8286806;28;20540;-64
2022/03/20 00:18:31;;;;;;;28.87;23.93;;;;;;;7.71;34.95;99203.53;8286269;28;20229;-65
2022/03/20 00:22:35;;;;;;;31.33;24.47;;;;;;;7.62;35.50;99198.50;8286115;28;20540;-64
2022/03/20 00:26:41;;;;;;;31.43;25.17;;;;;;;7.63;35.53;99192.44;8286389;28;20233;-64
2022/03/20 00:30:44;;;;;;;28.27;24.37;;;;;;;7.38;35.99;99187.59;8286231;28;20401;-64
2022/03/20 00:34:47;;;;;;;32.27;25.83;;;;;;;7.21;36.44;99189.50;8286239;28;20288;-64
2022/03/20 00:38:50;;;;;;;33.80;26.80;;;;;;;7.47;36.17;99188.38;8285946;28;20237;-63
2022/03/20 00:42:54;;;;;;;33.20;25.17;;;;;;;7.02;37.24;99187.13;8285711;28;20233;-64
2022/03/20 00:46:57;;;;;;;34.67;26.27;;;;;;;6.98;37.48;99185.44;8285985;28;20225;-64
2022/03/20 00:51:03;;;;;;;30.93;26.67;;;;;;;7.23;37.30;99191.22;8285639;28;20229;-64
2022/03/20 00:55:10;;;;;;;34.23;27.20;;;;;;;6.85;37.85;99192.47;8285099;28;20233;-64
2022/03/20 00:59:14;;;;;;;33.37;27.37;;;;;;;7.12;37.65;99189.59;8285171;28;20240;-64
2022/03/20 01:03:17;;;;;;;34.17;28.03;;;;;;;7.21;37.49;99187.78;8304016;28;20248;-64
2022/03/20 01:07:21;;;;;;;32.97;27.60;;;;;;;7.14;38.09;99187.88;8317427;28;20228;-64
2022/03/20 01:11:24;;;;;;;33.97;26.27;;;;;;;7.11;37.98;99188.75;8316750;28;20240;-64
2022/03/20 01:15:28;;;;;;;32.60;27.53;;;;;;;6.85;38.56;99186.44;8317097;28;20244;-64
2022/03/20 01:19:32;;;;;;;32.77;27.20;;;;;;;6.78;38.73;99195.13;8316930;28;20233;-65
2022/03/20 01:23:34;;;;;;;30.83;27.23;;;;;;;6.92;39.04;99189.84;8316821;28;20558;-65
2022/03/20 01:27:38;;;;;;;34.27;28.63;;;;;;;6.63;39.45;99188.38;8316645;28;20233;-64
2022/03/20 01:31:43;;;;;;;32.80;27.70;;;;;;;6.78;39.41;99175.38;8316693;28;20237;-64
2022/03/20 01:35:47;;;;;;;33.90;29.17;;;;;;;6.76;39.70;99171.97;8316590;28;20247;-64
2022/03/20 01:39:50;;;;;;;35.53;29.70;;;;;;;6.61;39.86;99180.66;8316495;28;20243;-64
2022/03/20 01:43:54;;;;;;;33.83;30.03;;;;;;;6.98;39.53;99171.72;8317530;28;20438;-64
2022/03/20 01:47:58;;;;;;;36.50;29.63;;;;;;;6.94;39.66;99170.91;8318223;28;20211;-64
2022/03/20 01:52:14;;;;;;;38.00;29.57;;;;;;;6.51;40.52;99175.59;8318651;28;20201;-64
2022/03/20 01:56:19;;;;;;;39.97;30.03;;;;;;;6.67;40.39;99166.88;8318457;28;20205;-64
2022/03/20 02:00:24;;;;;;;34.50;30.73;;;;;;;6.69;40.17;99167.72;8318385;28;20201;-64
2022/03/20 02:04:31;;;;;;;37.27;30.77;;;;;;;6.64;40.35;99177.22;8316795;28;20240;-64
2022/03/20 02:08:36;;;;;;;34.40;28.90;;;;;;;6.95;39.87;99169.19;8315383;28;20237;-64
2022/03/20 02:12:40;;;;;;;34.17;30.27;;;;;;;6.86;40.21;99167.56;8315656;28;20246;-64
2022/03/20 02:16:44;;;;;;;35.83;30.03;;;;;;;7.11;39.69;99164.72;8315315;28;20302;-64
2022/03/20 02:20:49;;;;;;;37.93;29.77;;;;;;;7.20;39.47;99162.91;8315687;28;20239;-64
2022/03/20 02:24:54;;;;;;;34.30;29.47;;;;;;;7.09;39.81;99163.91;8315305;28;20232;-64
2022/03/20 02:28:59;;;;;;;38.27;30.77;;;;;;;7.18;40.05;99161.22;8314997;28;20283;-64
2022/03/20 02:33:02;;;;;;;34.70;29.90;;;;;;;6.91;40.28;99167.50;8315119;28;20229;-63
2022/03/20 02:37:05;;;;;;;34.77;31.00;;;;;;;6.74;40.76;99155.69;8315307;28;20427;-64
2022/03/20 02:41:15;;;;;;;35.50;30.97;;;;;;;6.63;41.32;99149.78;8315372;28;20232;-64
2022/03/20 02:45:20;;;;;;;36.07;31.27;;;;;;;6.84;40.85;99152.13;8314873;28;20232;-64
2022/03/20 02:49:24;;;;;;;36.93;30.70;;;;;;;6.84;40.93;99157.28;8315227;28;20260;-63
2022/03/20 02:53:27;;;;;;;37.10;31.60;;;;;;;6.74;41.25;99158.25;8314689;28;20244;-64
2022/03/20 02:57:34;;;;;;;39.13;31.50;;;;;;;6.78;41.19;99165.06;8314632;28;20233;-63
2022/03/20 03:01:38;;;;;;;37.43;31.50;;;;;;;6.93;40.90;99182.09;8313971;28;20417;-64
2022/03/20 03:05:42;;;;;;;36.83;32.90;;;;;;;6.67;41.48;99184.91;8314586;28;20241;-64
2022/03/20 03:18:25;;;;;;;37.93;33.37;;;;;;;6.04;43.55;99177.69;8302215;28;20233;-64
2022/03/20 03:22:28;;;;;;;39.53;33.90;;;;;;;6.41;42.82;99191.13;8306146;28;20566;-64
2022/03/20 03:26:32;;;;;;;39.10;32.33;;;;;;;6.26;43.36;99183.53;8313908;28;20528;-64
2022/03/20 03:30:38;;;;;;;39.70;34.67;;;;;;;6.49;42.81;99196.19;8281880;28;20432;-64
2022/03/20 03:39:01;;;;;;;39.87;34.43;;;;;;;6.46;43.25;99197.09;8283228;28;20636;-64
2022/03/20 03:43:05;;;;;;;38.90;34.67;;;;;;;5.96;44.49;99200.00;8288092;28;20229;-64
2022/03/20 03:47:14;;;;;;;42.17;35.70;;;;;;;6.21;43.91;99193.84;8287717;28;20256;-64
2022/03/20 03:51:17;;;;;;;41.57;35.50;;;;;;;5.97;44.54;99199.16;8316955;28;20225;-63
2022/03/20 03:55:20;;;;;;;39.80;35.43;;;;;;;6.11;44.19;99199.94;8319451;28;20233;-64
2022/03/20 03:59:23;;;;;;;42.70;35.50;;;;;;;5.81;44.87;99194.06;8319865;28;20237;-64
2022/03/20 04:03:28;;;;;;;43.77;35.50;;;;;;;6.00;44.53;99194.00;8304359;28;20418;-64
2022/03/20 04:07:31;;;;;;;40.83;34.77;;;;;;;6.26;44.01;99201.53;8286283;28;20229;-66
2022/03/20 04:11:34;;;;;;;41.60;35.47;;;;;;;6.00;44.77;99191.44;8286699;28;20429;-64
2022/03/20 04:15:39;;;;;;;40.23;35.43;;;;;;;5.45;46.17;99187.41;8287421;28;20416;-64
2022/03/20 04:19:43;;;;;;;37.97;33.90;;;;;;;5.88;45.08;99187.16;8286715;28;20432;-64
2022/03/20 04:23:48;;;;;;;39.90;34.17;;;;;;;6.38;44.38;99200.63;8286013;28;20229;-64
2022/03/20 04:27:54;;;;;;;41.80;35.43;;;;;;;6.52;43.46;99197.91;8286371;28;20327;-63
2022/03/20 04:31:57;;;;;;;45.50;37.00;;;;;;;6.26;44.34;99196.38;8286188;28;20240;-63
2022/03/20 04:36:03;;;;;;;42.87;35.90;;;;;;;6.49;43.66;99208.22;8286048;28;20233;-63
2022/03/20 04:40:08;;;;;;;39.13;35.03;;;;;;;6.29;43.88;99209.25;8285746;28;20252;-64
2022/03/20 04:44:12;;;;;;;40.07;35.77;;;;;;;6.49;43.65;99213.38;8285686;28;20245;-64
2022/03/20 05:01:17;;;;;;;42.37;36.77;;;;;;;5.75;45.17;99218.94;8288030;28;20229;-64
2022/03/20 05:05:21;;;;;;;42.50;36.40;;;;;;;5.86;45.58;99223.19;8317834;28;20296;-64
2022/03/20 05:13:45;;;;;;;43.60;36.00;;;;;;;6.10;44.85;99225.66;8317299;28;20228;-63
2022/03/20 05:17:49;;;;;;;43.93;37.30;;;;;;;6.09;44.95;99237.66;8316857;28;20308;-64
2022/03/20 05:21:52;;;;;;;45.20;37.73;;;;;;;6.15;44.85;99245.34;8317129;28;20233;-64
2022/03/20 05:25:57;;;;;;;43.47;36.80;;;;;;;6.00;45.49;99237.72;8316892;28;20237;-64
2022/03/20 05:30:00;;;;;;;40.70;36.30;;;;;;;5.60;46.11;99237.88;8316550;28;20229;-64
2022/03/20 05:34:03;;;;;;;44.07;36.60;;;;;;;5.61;46.21;99239.56;8315396;28;20233;-64
2022/03/20 05:38:08;;;;;;;45.27;36.03;;;;;;;5.92;45.81;99231.72;8316838;28;20235;-64
2022/03/20 05:42:14;;;;;;;41.60;35.60;;;;;;;6.06;45.51;99233.38;8316312;28;20232;-63
2022/03/20 05:46:17;;;;;;;40.43;36.07;;;;;;;6.18;45.33;99231.59;8316521;28;20233;-63
2022/03/20 05:50:23;;;;;;;42.87;38.13;;;;;;;5.76;46.39;99234.38;8314739;28;20239;-64
2022/03/20 05:54:26;;;;;;;44.17;37.30;;;;;;;5.99;45.84;99233.44;8314776;28;20233;-63
2022/03/20 05:58:31;;;;;;;41.03;36.50;;;;;;;5.86;46.03;99240.31;8315871;28;20232;-63
2022/03/20 06:02:34;;;;;;;40.73;36.20;;;;;;;6.20;45.48;99251.31;8311558;28;20228;-64
2022/03/20 06:06:37;;;;;;;42.63;36.83;;;;;;;6.64;44.45;99249.28;8315510;28;20407;-64
2022/03/20 06:10:40;;;;;;;40.83;36.03;;;;;;;6.64;44.63;99246.72;8315475;28;20244;-64
2022/03/20 06:14:44;;;;;;;43.53;37.73;;;;;;;6.89;43.92;99244.78;8315411;28;20240;-64
2022/03/20 06:18:47;;;;;;;44.13;38.23;;;;;;;6.29;45.30;99262.41;8315503;28;20237;-64
2022/03/20 06:22:50;;;;;;;41.47;36.83;;;;;;;6.69;44.76;99267.28;8315436;28;20247;-64
2022/03/20 06:26:53;;;;;;;40.90;36.10;;;;;;;7.19;43.80;99274.53;8314840;28;20244;-64
2022/03/20 06:30:57;;;;;;;41.10;36.70;;;;;;;6.85;44.06;99279.16;8313881;28;20232;-64
2022/03/20 06:35:20;;;;;;;40.00;35.70;;;;;;;7.55;42.49;99282.78;8315318;28;20233;-64
2022/03/20 06:39:24;;;;;;;42.17;35.90;;;;;;;7.60;42.30;99285.31;8311753;28;20235;-64
2022/03/20 06:43:28;;;;;;;43.33;36.10;;;;;;;7.68;42.34;99291.22;8297070;28;20532;-63
2022/03/20 06:47:32;;;;;;;41.53;37.03;;;;;;;7.93;41.86;99294.34;8297658;28;20304;-63
2022/03/20 06:51:35;;;;;;;42.67;36.53;;;;;;;7.39;42.84;99302.72;8297305;28;20225;-64
2022/03/20 06:55:39;;;;;;;39.53;35.30;;;;;;;7.67;42.42;99301.56;8313705;28;20243;-64
2022/03/20 06:59:42;;;;;;;22.00;15.13;;;;;;;9.65;71.09;99303.72;8314871;28;20239;-60
2022/03/20 07:03:47;;;;;;;39.77;35.43;;;;;;;8.55;41.48;99306.47;8314605;28;20232;-63
2022/03/20 07:07:50;;;;;;;39.60;34.53;;;;;;;9.16;40.06;99308.06;8314527;28;20247;-63
2022/03/20 07:11:53;;;;;;;40.47;35.57;;;;;;;8.46;41.30;99309.19;8314694;28;20244;-63
2022/03/20 07:15:57;;;;;;;38.17;33.93;;;;;;;8.05;41.58;99316.56;8320931;28;20236;-63
2022/03/20 07:20:02;;;;;;;38.07;34.00;;;;;;;8.72;40.68;99325.16;8320939;28;20248;-63
2022/03/20 07:24:05;;;;;;;38.13;33.60;;;;;;;8.84;40.00;99324.09;8321501;28;20427;-63
2022/03/20 07:32:28;;;;;;;37.60;33.50;;;;;;;8.69;40.08;99322.59;8320656;28;20424;-63
2022/03/20 07:36:33;;;;;;;37.00;32.73;;;;;;;8.50;41.12;99328.94;8319979;28;20228;-64
2022/03/20 07:40:36;;;;;;;38.00;33.07;;;;;;;8.99;39.94;99329.03;8319988;28;20236;-64
2022/03/20 07:44:39;;;;;;;35.30;31.20;;;;;;;9.46;39.13;99328.22;8320369;28;20232;-64
2022/03/20 07:48:50;;;;;;;34.77;30.03;;;;;;;8.96;38.99;99323.91;8319766;28;20236;-64
2022/03/20 07:52:56;;;;;;;36.10;31.23;;;;;;;9.45;38.69;99326.53;8319827;28;20236;-64
2022/03/20 07:57:01;;;;;;;32.33;28.83;;;;;;;10.18;36.41;99327.69;8319941;28;20242;-63
2022/03/20 08:01:08;;;;;;;34.47;28.50;;;;;;;9.82;36.90;99320.66;8308118;28;20233;-63
2022/03/20 08:05:11;;;;;;;30.83;27.30;;;;;;;9.78;36.68;99322.47;8302519;28;20228;-63
2022/03/20 08:09:15;;;;;;;32.33;27.37;;;;;;;10.64;35.47;99337.94;8301864;28;20244;-63
2022/03/20 08:13:18;;;;;;;30.53;26.43;;;;;;;9.67;38.08;99338.22;8300816;28;20228;-67
2022/03/20 08:17:21;;;;;;;29.70;26.50;;;;;;;10.12;34.73;99342.50;8304529;28;20232;-65
2022/03/20 08:21:24;;;;;;;29.40;25.60;;;;;;;9.61;35.61;99334.88;8301699;28;20239;-64
2022/03/20 08:25:29;;;;;;;29.30;25.40;;;;;;;11.04;33.85;99332.69;8302572;28;20243;-65
2022/03/20 08:29:33;;;;;;;31.93;26.07;;;;;;;11.04;33.35;99327.53;8299843;28;20239;-65
2022/03/20 08:33:40;;;;;;;26.73;23.93;;;;;;;10.59;33.46;99334.63;8306506;28;20257;-65
2022/03/20 08:37:43;;;;;;;27.23;24.33;;;;;;;10.62;33.61;99331.97;8307257;28;20237;-65
2022/03/20 08:41:48;;;;;;;29.20;24.23;;;;;;;11.48;32.08;99333.31;8299854;28;20233;-65
2022/03/20 08:45:51;;;;;;;26.53;22.27;;;;;;;12.06;31.21;99327.44;8285926;28;20250;-65
2022/03/20 08:49:54;;;;;;;26.67;23.80;;;;;;;11.88;31.32;99332.22;8285870;28;20249;-65
2022/03/20 08:53:58;;;;;;;26.53;23.30;;;;;;;11.68;30.96;99327.56;8293613;28;20236;-65
2022/03/20 08:58:04;;;;;;;28.07;23.83;;;;;;;12.43;30.45;99334.13;8309151;28;20237;-65
2022/03/20 09:02:07;;;;;;;25.50;22.17;;;;;;;11.65;30.65;99345.84;8302205;28;20545;-65
2022/03/20 09:06:10;;;;;;;25.60;22.40;;;;;;;12.24;30.21;99331.25;8300285;28;20240;-65
2022/03/20 09:10:15;;;;;;;26.67;22.47;;;;;;;11.63;30.90;99334.66;8300165;28;20225;-66
2022/03/20 09:14:19;;;;;;;25.07;22.43;;;;;;;11.78;30.47;99354.13;8284578;28;20236;-65
2022/03/20 09:22:42;;;;;;;24.77;21.23;;;;;;;13.34;28.89;99341.69;8270490;28;20289;-66
2022/03/20 09:26:45;;;;;;;27.67;22.63;;;;;;;13.45;28.31;99343.03;8284356;28;20433;-66
2022/03/20 09:30:50;;;;;;;23.07;20.67;;;;;;;13.13;28.90;99346.66;8284526;28;20424;-65
2022/03/20 09:34:53;;;;;;;24.20;20.67;;;;;;;12.98;29.32;99353.22;8284169;28;20233;-65
2022/03/20 09:38:56;;;;;;;26.30;21.10;;;;;;;12.69;28.78;99347.19;8284014;28;20233;-65
2022/03/20 09:42:59;;;;;;;24.00;21.40;;;;;;;12.06;29.94;99340.41;8283982;28;20433;-65
2022/03/20 09:47:04;;;;;;;22.93;20.53;;;;;;;12.58;29.06;99341.47;8310485;28;20236;-65
2022/03/20 09:51:07;;;;;;;22.60;20.20;;;;;;;13.47;28.62;99343.81;8316645;28;20236;-65
2022/03/20 09:55:11;;;;;;;23.20;20.70;;;;;;;13.47;28.24;99353.38;8316185;28;20232;-65
2022/03/20 09:59:14;;;;;;;22.13;19.57;;;;;;;14.56;26.78;99343.38;8316163;28;20228;-65
2022/03/20 10:03:19;;;;;;;23.13;20.63;;;;;;;14.36;26.81;99331.13;8316009;28;20233;-65
2022/03/20 10:07:23;;;;;;;21.53;19.33;;;;;;;14.72;26.25;99341.91;8316084;28;20233;-65
2022/03/20 10:11:26;;;;;;;21.87;19.57;;;;;;;16.02;25.47;99330.34;8315540;28;20243;-65
2022/03/20 10:15:32;;;;;;;22.80;19.73;;;;;;;14.05;26.78;99329.63;8315521;28;20255;-65
2022/03/20 10:19:39;;;;;;;22.30;19.90;;;;;;;14.00;27.24;99334.19;8315088;28;20287;-65
2022/03/20 10:23:42;;;;;;;21.40;19.10;;;;;;;15.01;25.29;99337.28;8315444;28;20347;-65
2022/03/20 10:27:57;;;;;;;21.73;19.27;;;;;;;14.92;25.54;99335.88;8315268;28;20252;-65
2022/03/20 10:32:01;;;;;;;23.50;19.40;;;;;;;15.15;25.51;99336.72;8315340;28;20236;-65
2022/03/20 10:36:14;;;;;;;21.53;19.03;;;;;;;15.42;24.69;99338.19;8315375;28;20251;-65
2022/03/20 10:40:19;;;;;;;22.00;19.63;;;;;;;15.14;25.13;99335.03;8306589;28;20225;-65
2022/03/20 10:44:25;;;;;;;21.00;18.87;;;;;;;15.25;25.61;99332.81;8309617;28;20239;-65
2022/03/20 10:48:35;;;;;;;22.73;20.33;;;;;;;15.45;25.23;99334.56;8314104;28;20241;-65
2022/03/20 10:52:40;;;;;;;29.70;26.50;;;;;;;15.15;25.68;99334.94;8314392;28;20536;-66
2022/03/20 10:56:53;;;;;;;21.37;19.07;;;;;;;14.75;25.64;99327.88;8314857;28;20555;-66
2022/03/20 11:00:56;;;;;;;21.23;18.87;;;;;;;15.37;25.57;99334.91;8314751;28;20232;-65
2022/03/20 11:05:00;;;;;;;21.67;19.47;;;;;;;15.78;25.41;99337.53;8282199;28;20260;-65
2022/03/20 11:09:05;;;;;;;26.23;23.03;;;;;;;15.01;26.16;99332.06;8282013;28;20421;-65
2022/03/20 11:13:08;;;;;;;26.67;23.93;;;;;;;15.31;26.17;99340.38;8282264;28;20229;-65
2022/03/20 11:17:17;;;;;;;21.30;19.07;;;;;;;15.08;26.61;99320.47;8282039;28;20271;-65
2022/03/20 11:21:20;;;;;;;20.63;18.43;;;;;;;15.22;26.64;99323.34;8282201;28;20236;-65
2022/03/20 11:25:26;;;;;;;22.13;18.80;;;;;;;15.20;26.51;99326.94;8282037;28;20566;-65
2022/03/20 11:29:31;;;;;;;20.67;18.50;;;;;;;15.55;25.80;99335.88;8282053;28;20261;-65
2022/03/20 11:33:34;;;;;;;21.33;19.00;;;;;;;15.19;25.59;99322.63;8281407;28;20248;-66
2022/03/20 11:37:44;;;;;;;24.73;14.70;;;;;;;16.63;27.98;99315.38;8281835;28;20563;-64
2022/03/20 11:42:21;;;;;;;21.33;19.00;;;;;;;16.54;25.23;99316.63;8299758;28;20230;-63
2022/03/20 11:46:30;;;;;;;20.80;18.60;;;;;;;16.05;25.76;99310.22;8294317;28;20237;-64
2022/03/20 11:50:41;;;;;;;21.00;18.83;;;;;;;16.27;24.44;99310.94;8297225;28;20233;-63
2022/03/20 11:54:55;;;;;;;20.37;18.27;;;;;;;16.29;24.02;99309.09;8296666;28;20232;-63
2022/03/20 11:59:00;;;;;;;19.17;17.20;;;;;;;17.00;24.72;99309.25;8298690;28;20556;-63
2022/03/20 12:03:37;;;;;;;21.90;16.60;;;;;;;16.81;23.72;99308.41;8302253;28;20233;-65
2022/03/20 12:07:44;;;;;;;19.87;17.50;;;;;;;17.15;24.42;99307.63;8278219;28;20237;-60
2022/03/20 12:12:01;;;;;;;19.93;16.43;;;;;;;17.64;26.54;99295.56;8286803;28;20248;-60
2022/03/20 12:16:05;;;;;;;18.37;15.77;;;;;;;17.63;25.87;99291.25;8285069;28;20225;-59
2022/03/20 12:20:08;;;;;;;18.60;16.60;;;;;;;17.64;25.27;99290.34;8286366;28;20287;-60
2022/03/20 12:24:45;;;;;;;18.65;16.65;;;;;;;17.71;25.59;99292.53;8284393;28;20418;-60
2022/03/20 12:28:48;;;;;;;17.23;15.25;;;;;;;17.86;26.95;99283.06;8285828;28;20438;-60
2022/03/20 12:32:55;;;;;;;18.67;15.13;;;;;;;17.69;26.95;99285.72;8286224;28;20457;-60
2022/03/20 12:37:32;;;;;;;17.47;15.57;;;;;;;18.27;27.52;99290.44;8286312;28;20233;-60
2022/03/20 12:41:34;;;;;;;16.93;15.13;;;;;;;18.34;24.67;99285.72;8285373;28;20417;-60
2022/03/20 12:45:40;;;;;;;18.80;15.77;;;;;;;18.38;26.60;99289.88;8285752;28;20243;-60
2022/03/20 12:49:47;;;;;;;21.87;15.33;;;;;;;18.21;25.36;99293.41;8285515;28;20237;-60
2022/03/20 12:53:51;;;;;;;17.87;15.97;;;;;;;18.60;24.02;99289.53;8285387;28;20233;-60
2022/03/20 12:57:54;;;;;;;22.07;16.57;;;;;;;18.29;24.82;99287.75;8285043;28;20229;-60
2022/03/20 13:02:04;;;;;;;20.20;16.37;;;;;;;18.65;24.75;99287.47;8293273;28;20413;-59
2022/03/20 13:06:09;;;;;;;19.40;16.47;;;;;;;17.95;25.50;99284.34;8308214;28;20328;-60
2022/03/20 13:10:16;;;;;;;18.03;15.70;;;;;;;18.51;26.63;99285.63;8317039;28;20316;-60
2022/03/20 13:14:48;;;;;;;17.50;15.43;;;;;;;18.63;24.03;99281.47;8302512;28;20237;-60
2022/03/20 13:18:51;;;;;;;18.20;16.17;;;;;;;18.87;23.82;99281.03;8285093;28;20269;-60
2022/03/20 13:22:56;;;;;;;17.10;15.30;;;;;;;18.56;24.37;99285.34;8284780;28;20257;-60
2022/03/20 13:26:59;;;;;;;20.00;13.87;;;;;;;18.68;28.39;99289.94;8284563;28;20229;-60
2022/03/20 13:31:05;;;;;;;15.00;13.47;;;;;;;18.91;26.62;99293.88;8284425;28;20236;-60
2022/03/20 13:35:08;;;;;;;17.63;15.73;;;;;;;18.67;23.20;99285.59;8284492;28;20229;-60
2022/03/20 13:39:13;;;;;;;16.60;14.90;;;;;;;18.87;22.97;99287.13;8284170;28;20234;-60
2022/03/20 13:43:21;;;;;;;17.47;14.47;;;;;;;19.23;25.91;99285.06;8283839;28;20240;-60
2022/03/20 13:47:25;;;;;;;21.43;16.20;;;;;;;19.23;21.41;99278.06;8287744;28;20364;-62
2022/03/20 13:55:46;;;;;;;17.47;15.50;;;;;;;18.50;22.24;99285.72;1018096;26;20851;-63
2022/03/20 13:59:50;;;;;;;18.53;15.93;;;;;;;18.25;21.94;99273.13;8314358;28;20244;-63
2022/03/20 14:03:54;;;;;;;19.50;16.63;;;;;;;18.64;21.42;99277.06;8315902;28;20236;-63
2022/03/20 14:08:12;;;;;;;17.40;15.60;;;;;;;16.80;23.31;99281.41;8315836;28;20237;-61
2022/03/20 14:12:27;;;;;;;18.43;15.37;;;;;;;16.75;23.52;99282.53;8315833;28;20551;-61
2022/03/20 14:16:32;;;;;;;17.10;15.30;;;;;;;17.02;23.02;99283.00;8315525;28;20240;-62
2022/03/20 14:20:35;;;;;;;18.70;15.40;;;;;;;17.46;23.11;99279.03;8314843;28;20314;-63
2022/03/20 14:24:47;;;;;;;18.73;15.90;;;;;;;17.10;23.59;99283.47;8314319;28;20241;-62
2022/03/20 14:42:34;;;;;;;18.00;16.20;;;;;;;16.92;22.46;99273.91;8305723;28;20428;-68
2022/03/20 14:46:39;;;;;;;17.47;14.63;;;;;;;17.19;22.53;99262.06;8297800;28;20544;-69
2022/03/20 14:50:42;;;;;;;18.13;15.27;;;;;;;16.97;23.13;99270.13;8297215;28;20243;-68
2022/03/20 14:54:46;;;;;;;20.37;15.50;;;;;;;16.54;23.88;99260.88;8297412;28;20241;-69
2022/03/20 14:58:49;;;;;;;23.10;15.53;;;;;;;16.28;23.83;99259.50;8297665;28;20553;-68
2022/03/20 15:02:52;;;;;;;17.87;15.60;;;;;;;16.56;23.46;99252.06;8297667;28;20252;-68
2022/03/20 15:06:56;;;;;;;18.40;16.50;;;;;;;16.33;24.16;99255.75;8296974;28;20238;-68
2022/03/20 15:15:22;;;;;;;18.57;15.13;;;;;;;16.10;23.94;99256.84;8297091;28;20241;-68
2022/03/20 15:19:25;;;;;;;15.83;14.03;;;;;;;17.04;23.12;99257.59;8298740;28;20244;-68
2022/03/20 15:23:28;;;;;;;18.87;14.70;;;;;;;16.13;24.12;99251.50;8298015;28;20232;-68
2022/03/20 15:27:33;;;;;;;17.57;14.03;;;;;;;16.58;23.75;99245.00;8291940;28;20230;-68
2022/03/20 15:31:44;;;;;;;17.53;14.93;;;;;;;16.23;24.02;99247.50;8296923;28;20233;-68
2022/03/20 15:35:49;;;;;;;16.10;14.50;;;;;;;16.34;24.27;99241.78;8300830;28;20304;-69
2022/03/20 15:39:52;;;;;;;18.30;15.20;;;;;;;15.63;25.55;99242.41;8303161;28;20238;-68
2022/03/20 15:43:57;;;;;;;17.93;15.17;;;;;;;15.65;25.79;99242.34;8303149;28;20217;-68
2022/03/20 15:48:00;;;;;;;15.90;14.20;;;;;;;15.80;26.35;99251.25;8302839;28;20240;-67
2022/03/20 15:52:03;;;;;;;16.63;14.07;;;;;;;15.73;26.28;99244.59;8287267;28;20249;-67
2022/03/20 15:56:07;;;;;;;16.60;14.33;;;;;;;15.58;26.70;99246.97;8297254;28;20240;-68
2022/03/20 16:00:12;;;;;;;17.10;14.30;;;;;;;15.36;27.01;99246.22;8319474;28;20453;-68
2022/03/20 16:04:15;;;;;;;15.70;14.03;;;;;;;14.94;27.31;99255.81;8318981;28;20241;-68
2022/03/20 16:08:19;;;;;;;15.77;14.10;;;;;;;15.03;27.51;99260.66;8318976;28;20241;-68
2022/03/20 16:12:22;;;;;;;15.63;14.00;;;;;;;14.77;27.86;99259.09;8289830;28;20234;-68
2022/03/20 16:16:26;;;;;;;15.37;13.60;;;;;;;15.13;27.54;99261.09;8289861;28;20234;-68
2022/03/20 16:20:29;;;;;;;17.57;14.27;;;;;;;14.66;27.77;99259.56;8301807;28;20241;-68
2022/03/20 16:28:53;;;;;;;17.97;14.07;;;;;;;14.59;28.05;99260.72;8300364;28;20236;-68
2022/03/20 16:32:57;;;;;;;15.10;13.50;;;;;;;14.45;28.19;99260.41;8301520;28;20569;-67
2022/03/20 16:37:00;;;;;;;19.23;13.87;;;;;;;14.11;28.73;99260.84;8303817;28;20242;-63
2022/03/20 16:41:04;;;;;;;21.40;14.70;;;;;;;14.11;28.39;99253.00;8301157;28;20510;-63
2022/03/20 16:45:12;;;;;;;16.13;14.07;;;;;;;14.20;28.41;99261.34;8300551;28;20232;-63
2022/03/20 16:49:17;;;;;;;19.07;13.17;;;;;;;14.21;28.55;99259.59;8299420;28;20253;-63
2022/03/20 16:53:22;;;;;;;16.63;12.83;;;;;;;14.16;28.84;99262.34;8303911;28;20236;-63
2022/03/20 16:57:24;;;;;;;14.37;12.53;;;;;;;13.82;29.08;99252.38;8299518;28;20232;-63
2022/03/20 17:01:27;;;;;;;16.13;14.00;;;;;;;13.76;29.06;99252.59;8298633;28;20247;-63
2022/03/20 17:05:33;;;;;;;19.50;14.57;;;;;;;13.87;29.05;99261.69;8300815;28;20229;-63
2022/03/20 17:09:36;;;;;;;14.63;13.10;;;;;;;13.72;29.13;99262.28;8299959;28;20228;-64
2022/03/20 17:13:40;;;;;;;18.33;15.03;;;;;;;13.36;29.56;99274.84;8287540;28;20241;-63
2022/03/20 17:17:43;;;;;;;24.70;18.07;;;;;;;13.14;29.74;99269.53;8289360;28;20236;-63
2022/03/20 17:21:47;;;;;;;27.80;21.50;;;;;;;13.30;29.70;99266.34;8307947;28;20543;-63
2022/03/20 17:25:52;;;;;;;21.93;17.27;;;;;;;13.37;29.60;99274.78;8292563;28;20250;-63
2022/03/20 17:29:55;;;;;;;17.90;15.23;;;;;;;13.49;29.61;99273.50;8293665;28;20515;-63
2022/03/20 17:33:58;;;;;;;17.23;13.50;;;;;;;13.21;29.93;99274.47;8294314;28;20430;-63
2022/03/20 17:38:03;;;;;;;14.37;12.27;;;;;;;12.85;30.42;99273.91;8302133;28;20246;-62
2022/03/20 17:42:07;;;;;;;16.13;12.87;;;;;;;12.75;30.62;99267.31;8308316;28;20248;-62
2022/03/20 17:46:30;;;;;;;15.90;12.73;;;;;;;12.90;30.33;99274.63;8298347;28;20233;-63
2022/03/20 17:50:34;;;;;;;15.43;13.03;;;;;;;12.97;30.14;99280.47;8300771;28;20230;-62
2022/03/20 17:54:39;;;;;;;14.37;12.47;;;;;;;12.66;30.71;99278.84;8299456;28;20313;-62
2022/03/20 17:58:42;;;;;;;18.10;14.80;;;;;;;12.81;30.43;99282.72;8296857;28;20225;-62
2022/03/20 18:11:31;;;;;;;13.30;11.90;;;;;;;12.37;31.20;99292.75;8275860;28;20244;-62
2022/03/20 18:15:36;;;;;;;14.53;12.27;;;;;;;12.29;31.41;99286.06;8298070;28;20220;-63
2022/03/20 18:19:39;;;;;;;20.87;12.93;;;;;;;12.35;31.44;99289.38;8298366;28;20241;-63
2022/03/20 18:23:42;;;;;;;15.87;13.07;;;;;;;12.27;31.46;99289.59;8298388;28;20262;-63
2022/03/20 18:27:48;;;;;;;14.17;12.47;;;;;;;12.50;31.10;99292.34;8308550;28;20240;-62
2022/03/20 18:31:53;;;;;;;13.40;11.93;;;;;;;12.59;30.86;99298.16;8314751;28;20262;-63
2022/03/20 18:35:56;;;;;;;12.97;11.67;;;;;;;12.15;31.44;99300.34;8306368;28;20289;-63
2022/03/20 18:40:00;;;;;;;15.80;12.20;;;;;;;12.27;31.02;99306.03;8314715;28;20243;-62
2022/03/20 18:44:05;;;;;;;15.13;11.90;;;;;;;11.97;31.57;99318.16;8314723;28;20239;-62
2022/03/20 18:48:11;;;;;;;12.40;10.93;;;;;;;12.02;31.27;99320.63;8314458;28;20255;-63
2022/03/20 18:52:15;;;;;;;14.17;10.97;;;;;;;12.10;31.20;99321.25;8300032;28;20397;-63
2022/03/20 18:56:20;;;;;;;13.80;11.20;;;;;;;12.12;31.42;99315.13;8305039;28;20239;-62
2022/03/20 19:00:26;;;;;;;12.80;11.20;;;;;;;11.86;31.57;99325.38;8307310;28;20252;-63
2022/03/20 19:04:30;;;;;;;15.40;11.30;;;;;;;12.05;31.08;99331.78;8289467;28;20237;-62
2022/03/20 19:08:33;;;;;;;15.70;11.10;;;;;;;11.95;31.30;99334.69;8306036;28;20470;-62
2022/03/20 19:12:36;;;;;;;16.10;11.13;;;;;;;11.63;31.66;99341.56;8320803;28;20240;-63
2022/03/20 19:16:41;;;;;;;15.37;11.70;;;;;;;11.50;31.97;99346.25;8320562;28;20243;-62
2022/03/20 19:20:44;;;;;;;17.30;12.50;;;;;;;11.71;31.76;99342.22;8320671;28;20303;-62
2022/03/20 19:24:47;;;;;;;17.83;11.90;;;;;;;11.23;32.23;99351.25;8320280;28;20240;-63
2022/03/20 19:28:50;;;;;;;17.13;12.03;;;;;;;11.63;31.57;99347.63;8320202;28;20236;-63
2022/03/20 19:32:55;;;;;;;12.83;11.10;;;;;;;11.45;31.97;99355.88;8320196;28;20239;-62
2022/03/20 19:41:18;;;;;;;12.33;10.97;;;;;;;11.44;32.12;99362.81;8320005;28;20240;-62
2022/03/20 19:45:21;;;;;;;15.30;11.37;;;;;;;12.58;43.08;99359.66;8319883;28;20248;-61
2022/03/20 19:49:26;;;;;;;12.13;10.83;;;;;;;13.03;35.54;99366.94;8319587;28;20248;-62
2022/03/20 19:53:28;;;;;;;15.20;11.80;;;;;;;12.67;32.42;99361.97;8319522;28;20247;-61
2022/03/20 19:57:31;;;;;;;14.33;11.63;;;;;;;12.13;30.08;99363.56;8319135;28;20244;-62
2022/03/20 20:01:34;;;;;;;15.87;11.60;;;;;;;11.44;30.37;99367.13;8319148;28;20551;-62
2022/03/20 20:05:39;;;;;;;13.80;11.50;;;;;;;11.04;30.90;99374.19;8303068;28;20555;-63
2022/03/20 20:09:44;;;;;;;14.43;11.80;;;;;;;11.21;30.75;99378.94;8286640;28;20252;-62